Time;durP1;ratioP1;P1;durP2;ratioP2;P2;SDS_P1;SDS_P2;PMS_P1;PMS_P2;Temp;Humidity;BMP_temperature;BMP_pressure;BME280_temperature;BME280_humidity;BME280_pressure;Samples;Min_cycle;Max_cycle;Signal;HPM_P1;HPM_P2
2021/06/19 00:00:11;;;;;;;7.50;4.37;;;31.10;40.60;;;;;;5026893;28;20436;-53
2021/06/19 00:02:37;;;;;;;7.30;4.57;;;31.10;40.40;;;;;;5027115;28;20455;-53
2021/06/19 00:05:03;;;;;;;7.93;5.23;;;31.10;40.20;;;;;;5025709;28;20460;-54
2021/06/19 00:07:29;;;;;;;8.50;4.37;;;31.10;40.20;;;;;;5026579;28;20193;-50
2021/06/19 00:09:55;;;;;;;10.07;5.30;;;31.10;40.20;;;;;;5025437;28;20478;-52
2021/06/19 00:12:20;;;;;;;7.87;5.23;;;31.00;40.10;;;;;;5023115;28;20243;-52
2021/06/19 00:14:46;;;;;;;7.43;4.60;;;31.00;40.20;;;;;;5015588;28;20193;-53
2021/06/19 00:17:13;;;;;;;10.53;4.20;;;31.00;40.30;;;;;;5027411;28;20280;-51
2021/06/19 00:19:39;;;;;;;7.40;4.50;;;31.10;40.40;;;;;;5025956;28;20193;-51
2021/06/19 00:22:05;;;;;;;6.50;4.50;;;31.10;40.50;;;;;;5023732;28;20443;-52
2021/06/19 00:24:39;;;;;;;7.90;4.23;;;31.10;40.50;;;;;;5019792;28;20217;-52
2021/06/19 00:27:07;;;;;;;16.70;4.50;;;31.10;40.60;;;;;;5024900;28;20443;-52
2021/06/19 00:29:33;;;;;;;7.13;4.37;;;31.10;40.70;;;;;;5025517;28;20506;-53
2021/06/19 00:31:59;;;;;;;11.70;4.73;;;31.00;40.70;;;;;;5015434;28;20475;-52
2021/06/19 00:34:25;;;;;;;5.33;4.33;;;31.00;40.90;;;;;;5023501;28;20451;-49
2021/06/19 00:36:51;;;;;;;13.37;4.87;;;31.00;41.20;;;;;;5025716;28;20194;-52
2021/06/19 00:39:16;;;;;;;8.53;5.20;;;30.80;42.00;;;;;;5032450;28;20807;-48
2021/06/19 00:41:42;;;;;;;12.60;4.90;;;30.60;42.20;;;;;;5030718;28;20268;-50
2021/06/19 00:44:19;;;;;;;12.77;4.77;;;30.20;42.20;;;;;;5027186;28;20296;-51
2021/06/19 00:46:55;;;;;;;12.77;4.53;;;29.70;43.40;;;;;;5030963;28;20193;-53
2021/06/19 00:49:22;;;;;;;9.57;4.13;;;29.60;43.60;;;;;;5029938;28;20479;-51
2021/06/19 00:51:48;;;;;;;8.73;4.10;;;29.70;43.60;;;;;;5031249;28;20484;-52
2021/06/19 00:54:15;;;;;;;11.37;4.43;;;29.20;44.20;;;;;;5032670;28;20814;-51
2021/06/19 00:56:41;;;;;;;12.73;5.50;;;29.30;44.40;;;;;;5028185;28;20991;-49
2021/06/19 00:59:09;;;;;;;12.47;4.90;;;29.50;44.10;;;;;;5024305;28;20436;-53
2021/06/19 01:01:34;;;;;;;11.37;5.40;;;29.70;43.90;;;;;;5027828;28;20550;-48
2021/06/19 01:04:05;;;;;;;10.23;4.40;;;29.80;43.30;;;;;;5024523;28;21067;-49
2021/06/19 01:06:33;;;;;;;13.67;5.20;;;29.90;42.90;;;;;;5021696;28;20197;-52
2021/06/19 01:08:59;;;;;;;13.33;5.40;;;29.90;42.60;;;;;;5029149;28;20436;-50
2021/06/19 01:11:26;;;;;;;11.90;5.03;;;30.20;42.30;;;;;;5026794;28;21026;-52
2021/06/19 01:13:53;;;;;;;12.87;5.33;;;30.40;42.20;;;;;;5028870;28;20210;-49
2021/06/19 01:16:20;;;;;;;11.50;4.97;;;30.40;42.20;;;;;;5029196;28;20470;-52
2021/06/19 01:18:48;;;;;;;12.40;5.70;;;30.30;42.20;;;;;;5027618;28;20440;-52
2021/06/19 01:21:23;;;;;;;14.73;4.90;;;30.20;42.60;;;;;;5029645;28;20458;-52
2021/06/19 01:23:50;;;;;;;9.87;5.00;;;30.10;43.00;;;;;;5028621;28;21086;-52
2021/06/19 01:26:24;;;;;;;12.83;5.50;;;29.70;43.40;;;;;;5027861;28;20431;-53
2021/06/19 01:28:52;;;;;;;15.60;5.70;;;29.60;43.60;;;;;;5025791;28;20480;-51
2021/06/19 01:31:19;;;;;;;9.90;4.90;;;29.80;43.80;;;;;;5026606;28;20467;-53
2021/06/19 01:33:47;;;;;;;13.57;5.67;;;29.90;44.50;;;;;;5030837;28;21748;-52
2021/06/19 01:36:14;;;;;;;15.40;4.67;;;29.70;44.10;;;;;;5028520;28;20439;-50
2021/06/19 01:38:46;;;;;;;14.53;4.90;;;29.70;45.00;;;;;;5025359;28;20443;-53
2021/06/19 01:41:15;;;;;;;17.67;5.37;;;29.80;44.60;;;;;;5031703;28;20447;-53
2021/06/19 01:43:43;;;;;;;15.60;5.77;;;29.90;45.90;;;;;;5024115;28;20531;-53
2021/06/19 01:46:09;;;;;;;11.97;5.10;;;30.00;46.60;;;;;;5030063;28;20947;-54
2021/06/19 01:48:35;;;;;;;18.20;5.43;;;30.00;46.80;;;;;;5027319;28;20880;-54
2021/06/19 01:51:00;;;;;;;7.40;5.23;;;30.00;47.60;;;;;;5028784;28;20468;-53
2021/06/19 01:53:26;;;;;;;11.50;6.03;;;29.90;47.10;;;;;;5032979;28;20282;-54
2021/06/19 01:55:52;;;;;;;11.00;5.80;;;29.80;47.80;;;;;;5027581;28;20208;-54
2021/06/19 01:58:18;;;;;;;14.30;5.43;;;29.80;47.30;;;;;;5029162;28;20193;-53
2021/06/19 02:00:44;;;;;;;17.80;6.40;;;29.80;47.60;;;;;;5025684;28;20189;-54
2021/06/19 02:03:09;;;;;;;11.80;6.03;;;29.80;48.20;;;;;;5028824;28;20614;-54
2021/06/19 02:05:36;;;;;;;10.30;5.50;;;29.80;48.70;;;;;;5020473;28;20213;-54
2021/06/19 02:08:07;;;;;;;9.90;5.40;;;29.70;48.20;;;;;;5029324;28;20212;-54
2021/06/19 02:10:36;;;;;;;12.50;5.23;;;29.60;48.50;;;;;;5021955;28;20503;-54
2021/06/19 02:13:03;;;;;;;16.03;5.10;;;29.70;49.00;;;;;;5029547;28;20577;-54
2021/06/19 02:15:29;;;;;;;13.63;5.80;;;29.60;49.10;;;;;;5029919;28;20623;-54
2021/06/19 02:17:56;;;;;;;13.37;5.67;;;29.60;49.00;;;;;;5026623;28;20444;-54
2021/06/19 02:20:23;;;;;;;12.00;5.33;;;29.40;48.70;;;;;;5027643;28;21273;-53
2021/06/19 02:22:49;;;;;;;20.30;5.20;;;29.20;49.40;;;;;;5023980;28;20796;-53
2021/06/19 02:25:18;;;;;;;10.37;5.30;;;29.00;49.10;;;;;;5025614;28;20448;-53
2021/06/19 02:27:58;;;;;;;10.27;5.00;;;28.50;50.00;;;;;;5022028;28;20440;-54
2021/06/19 02:30:26;;;;;;;11.17;5.93;;;28.40;50.70;;;;;;5026661;28;20455;-53
2021/06/19 02:32:53;;;;;;;8.83;5.30;;;28.00;51.90;;;;;;5027087;28;20673;-53
2021/06/19 02:35:20;;;;;;;9.47;5.73;;;27.80;52.50;;;;;;5028581;28;20463;-54
2021/06/19 02:37:46;;;;;;;13.20;6.63;;;27.80;52.80;;;;;;5027348;28;20513;-53
2021/06/19 02:40:11;;;;;;;14.83;5.80;;;27.90;52.40;;;;;;5025789;28;20889;-53
2021/06/19 02:42:38;;;;;;;13.53;5.67;;;28.00;52.20;;;;;;5026812;28;20544;-53
2021/06/19 02:45:10;;;;;;;14.10;6.07;;;28.00;52.40;;;;;;5028782;28;20633;-53
2021/06/19 02:47:49;;;;;;;6.57;5.40;;;27.90;52.70;;;;;;5028250;28;20458;-52
2021/06/19 02:50:16;;;;;;;11.80;5.20;;;27.60;53.30;;;;;;5024517;28;20456;-51
2021/06/19 02:52:43;;;;;;;9.20;5.80;;;27.50;53.90;;;;;;5025621;28;20514;-52
2021/06/19 02:55:14;;;;;;;12.30;5.87;;;27.50;54.00;;;;;;5028414;28;20454;-51
2021/06/19 02:57:40;;;;;;;7.53;5.57;;;27.60;53.80;;;;;;5025647;28;20489;-53
2021/06/19 03:00:07;;;;;;;8.50;5.90;;;27.70;53.70;;;;;;5023295;28;20440;-51
2021/06/19 03:02:33;;;;;;;10.73;5.70;;;27.60;53.90;;;;;;5027148;28;20200;-53
2021/06/19 03:04:58;;;;;;;11.13;5.30;;;27.50;54.10;;;;;;5026841;28;20444;-53
2021/06/19 03:07:24;;;;;;;10.00;5.17;;;27.40;54.20;;;;;;5029588;28;20649;-54
2021/06/19 03:09:50;;;;;;;7.07;5.50;;;27.40;54.00;;;;;;5029504;28;20254;-49
2021/06/19 03:12:15;;;;;;;7.50;5.57;;;27.60;53.80;;;;;;5024887;28;20236;-54
2021/06/19 03:14:41;;;;;;;11.07;5.30;;;27.40;53.60;;;;;;5026846;28;20194;-50
2021/06/19 03:17:07;;;;;;;10.10;4.87;;;27.50;52.70;;;;;;5031200;28;20204;-53
2021/06/19 03:19:32;;;;;;;11.50;5.60;;;27.70;51.60;;;;;;5028463;28;20204;-53
2021/06/19 03:22:02;;;;;;;15.70;5.37;;;28.00;51.60;;;;;;5028532;28;20204;-50
2021/06/19 03:24:28;;;;;;;6.97;4.93;;;28.20;51.40;;;;;;5025079;28;20759;-52
2021/06/19 03:26:54;;;;;;;7.63;4.70;;;28.40;50.70;;;;;;5027667;28;20455;-54
2021/06/19 03:29:20;;;;;;;12.60;5.27;;;28.40;50.80;;;;;;5025114;28;20592;-52
2021/06/19 03:31:46;;;;;;;9.43;5.30;;;28.60;50.40;;;;;;5020054;28;20572;-50
2021/06/19 03:34:12;;;;;;;8.53;5.40;;;28.70;49.80;;;;;;5026214;28;21267;-49
2021/06/19 03:36:37;;;;;;;10.90;5.83;;;28.80;49.40;;;;;;5025947;28;20656;-52
2021/06/19 03:39:03;;;;;;;13.27;4.90;;;28.90;49.40;;;;;;5029369;28;20197;-50
2021/06/19 03:41:29;;;;;;;9.40;5.13;;;29.00;49.30;;;;;;5026541;28;20239;-50
2021/06/19 03:43:55;;;;;;;8.40;5.27;;;29.00;48.80;;;;;;5027223;28;20488;-50
2021/06/19 03:46:20;;;;;;;7.27;4.97;;;29.20;48.60;;;;;;5027517;28;20190;-51
2021/06/19 03:48:46;;;;;;;9.17;6.10;;;29.20;48.40;;;;;;5030181;28;20193;-53
2021/06/19 03:51:12;;;;;;;10.60;5.30;;;29.20;48.20;;;;;;5027470;28;20227;-53
2021/06/19 03:53:37;;;;;;;13.97;4.80;;;29.30;48.30;;;;;;5028493;28;20310;-49
2021/06/19 03:56:03;;;;;;;10.70;5.03;;;29.30;47.90;;;;;;5021665;28;20196;-50
2021/06/19 03:58:29;;;;;;;6.37;4.47;;;29.40;47.60;;;;;;5026074;28;20272;-53
2021/06/19 04:00:54;;;;;;;12.37;4.90;;;29.40;47.50;;;;;;5024765;28;20811;-52
2021/06/19 04:03:20;;;;;;;9.57;5.03;;;29.40;47.20;;;;;;5026327;28;20217;-53
2021/06/19 04:05:45;;;;;;;8.53;4.67;;;29.40;47.10;;;;;;5025031;28;20201;-53
2021/06/19 04:08:11;;;;;;;13.20;6.13;;;29.30;47.40;;;;;;5028530;28;20665;-53
2021/06/19 04:10:37;;;;;;;9.27;4.70;;;29.30;47.60;;;;;;5029313;28;20194;-53
2021/06/19 04:13:02;;;;;;;8.10;5.17;;;29.30;47.60;;;;;;5023607;28;20236;-53
2021/06/19 04:15:28;;;;;;;7.37;5.40;;;29.30;47.50;;;;;;5022995;28;20193;-52
2021/06/19 04:17:54;;;;;;;9.00;4.93;;;29.30;48.70;;;;;;5014162;28;20528;-52
2021/06/19 04:20:20;;;;;;;7.10;5.53;;;29.20;48.00;;;;;;5020166;28;20442;-53
2021/06/19 04:22:46;;;;;;;11.03;5.73;;;29.30;48.10;;;;;;5027060;28;20843;-53
2021/06/19 04:25:13;;;;;;;9.93;4.80;;;29.20;48.20;;;;;;5025474;28;20190;-52
2021/06/19 04:27:59;;;;;;;11.80;5.93;;;29.20;48.30;;;;;;5026818;28;20444;-52
2021/06/19 04:30:25;;;;;;;9.00;5.27;;;29.30;48.40;;;;;;5026581;28;20868;-53
2021/06/19 04:32:53;;;;;;;7.30;5.10;;;29.30;48.20;;;;;;5027863;28;20555;-52
2021/06/19 04:35:19;;;;;;;12.17;6.10;;;29.40;47.90;;;;;;5024819;28;20440;-51
2021/06/19 04:37:46;;;;;;;9.53;5.37;;;29.50;47.90;;;;;;5025559;28;20440;-53
2021/06/19 04:42:40;;;;;;;10.70;6.80;;;29.40;48.20;;;;;;5029416;28;20440;-52
2021/06/19 04:45:08;;;;;;;9.70;5.70;;;29.50;47.90;;;;;;5023679;28;20497;-53
2021/06/19 04:47:35;;;;;;;12.67;6.10;;;29.50;47.80;;;;;;5025534;28;20514;-51
2021/06/19 04:50:03;;;;;;;7.77;6.00;;;29.60;47.80;;;;;;5018978;28;20447;-53
2021/06/19 04:52:34;;;;;;;10.43;5.87;;;29.70;47.90;;;;;;5028275;28;20472;-52
2021/06/19 04:55:00;;;;;;;10.90;5.60;;;29.70;47.90;;;;;;5026235;28;20448;-53
2021/06/19 04:57:26;;;;;;;7.80;5.30;;;29.70;47.70;;;;;;5023002;28;20469;-50
2021/06/19 04:59:51;;;;;;;9.13;4.87;;;29.70;47.80;;;;;;5028267;28;20439;-53
2021/06/19 05:02:17;;;;;;;8.20;4.90;;;29.70;47.80;;;;;;5029764;28;20610;-53
2021/06/19 05:04:43;;;;;;;8.00;5.00;;;29.70;47.80;;;;;;5022679;28;20194;-52
2021/06/19 05:07:09;;;;;;;8.27;5.90;;;29.70;47.60;;;;;;5023387;28;20197;-49
2021/06/19 05:09:35;;;;;;;9.40;6.40;;;29.80;47.80;;;;;;5028309;28;20448;-52
2021/06/19 05:12:00;;;;;;;8.00;5.70;;;29.50;48.80;;;;;;5025380;28;21029;-52
2021/06/19 05:14:27;;;;;;;8.07;5.80;;;29.40;48.80;;;;;;5025800;28;20300;-52
2021/06/19 05:16:54;;;;;;;11.17;6.17;;;29.50;48.40;;;;;;5027353;28;20201;-49
2021/06/19 05:19:20;;;;;;;13.97;6.03;;;29.60;48.20;;;;;;5022426;28;20436;-52
2021/06/19 05:21:46;;;;;;;11.30;6.03;;;29.60;48.40;;;;;;5029897;28;20471;-48
2021/06/19 05:24:12;;;;;;;10.33;4.93;;;29.60;48.70;;;;;;5029025;28;20941;-48
2021/06/19 05:26:39;;;;;;;6.60;5.20;;;29.60;48.70;;;;;;5014412;28;20205;-49
2021/06/19 05:29:05;;;;;;;9.40;5.87;;;29.60;48.60;;;;;;5023105;28;20435;-48
2021/06/19 05:31:33;;;;;;;15.83;6.40;;;29.70;48.40;;;;;;5023967;28;20486;-47
2021/06/19 05:33:59;;;;;;;10.43;5.90;;;29.80;48.20;;;;;;5023618;28;20339;-48
2021/06/19 05:36:24;;;;;;;9.20;5.90;;;29.80;48.10;;;;;;5029354;28;20440;-51
2021/06/19 05:38:50;;;;;;;12.10;6.00;;;29.70;48.20;;;;;;5020105;28;20459;-49
2021/06/19 05:41:16;;;;;;;12.17;5.60;;;29.70;48.30;;;;;;5026484;28;20251;-48
2021/06/19 05:43:41;;;;;;;9.50;6.00;;;29.70;47.90;;;;;;5030159;28;20646;-49
2021/06/19 05:46:07;;;;;;;10.70;5.80;;;29.70;47.90;;;;;;5027301;28;20208;-48
2021/06/19 05:48:33;;;;;;;18.60;6.00;;;29.80;47.90;;;;;;5027002;28;20197;-51
2021/06/19 05:50:59;;;;;;;15.60;6.60;;;29.90;47.90;;;;;;5030967;28;20201;-51
2021/06/19 05:53:26;;;;;;;9.10;6.03;;;29.80;47.90;;;;;;5029832;28;20220;-49
2021/06/19 05:55:52;;;;;;;15.60;7.80;;;29.80;47.80;;;;;;5020908;28;20513;-50
2021/06/19 05:58:17;;;;;;;10.73;6.43;;;29.90;47.70;;;;;;5029250;28;20432;-48
2021/06/19 06:00:43;;;;;;;10.40;6.57;;;29.90;47.50;;;;;;5029191;28;20231;-49
2021/06/19 06:03:09;;;;;;;14.27;6.53;;;30.00;47.30;;;;;;5031258;28;20209;-48
2021/06/19 06:05:34;;;;;;;11.97;6.07;;;30.00;47.40;;;;;;5028972;28;20189;-48
2021/06/19 06:08:00;;;;;;;9.13;5.70;;;29.90;47.70;;;;;;5031177;28;20281;-52
2021/06/19 06:10:29;;;;;;;9.67;6.53;;;30.00;47.90;;;;;;5030685;28;20189;-47
2021/06/19 06:12:56;;;;;;;13.43;6.73;;;29.70;49.00;;;;;;5029064;28;20828;-49
2021/06/19 06:15:22;;;;;;;11.80;5.60;;;29.60;49.70;;;;;;5024038;28;20443;-48
2021/06/19 06:17:48;;;;;;;13.13;6.70;;;29.40;49.80;;;;;;5030053;28;20431;-48
2021/06/19 06:20:14;;;;;;;8.50;5.87;;;29.40;49.80;;;;;;5023656;28;20520;-49
2021/06/19 06:22:40;;;;;;;12.50;6.20;;;29.40;50.00;;;;;;5027875;28;20200;-48
2021/06/19 06:25:06;;;;;;;12.00;6.60;;;29.50;49.80;;;;;;5022978;28;20436;-52
2021/06/19 06:27:32;;;;;;;15.57;6.63;;;29.60;49.70;;;;;;5013301;28;20429;-50
2021/06/19 06:29:58;;;;;;;9.37;6.20;;;29.80;49.30;;;;;;5018394;28;20435;-49
2021/06/19 06:32:24;;;;;;;13.57;6.33;;;30.00;48.70;;;;;;5027081;28;20221;-49
2021/06/19 06:34:49;;;;;;;9.20;6.27;;;30.10;48.50;;;;;;5022154;28;20662;-50
2021/06/19 06:37:15;;;;;;;12.30;7.80;;;30.10;48.50;;;;;;5013071;28;20646;-51
2021/06/19 06:39:41;;;;;;;10.87;6.47;;;30.10;48.30;;;;;;5012445;28;20673;-49
2021/06/19 06:42:07;;;;;;;17.43;6.03;;;30.00;48.90;;;;;;5011197;28;20650;-51
2021/06/19 06:44:32;;;;;;;11.83;6.50;;;29.90;49.20;;;;;;5019410;28;20264;-48
2021/06/19 06:46:58;;;;;;;10.57;6.67;;;30.00;49.00;;;;;;5017837;28;20198;-51
2021/06/19 06:49:24;;;;;;;9.57;7.07;;;29.70;49.70;;;;;;5012536;28;20636;-53
2021/06/19 06:51:50;;;;;;;11.27;6.30;;;29.70;49.50;;;;;;5012607;28;20201;-52
2021/06/19 06:54:15;;;;;;;15.63;8.03;;;29.60;49.90;;;;;;5013511;28;20205;-52
2021/06/19 06:56:41;;;;;;;7.73;5.80;;;29.80;49.40;;;;;;5031966;28;20440;-51
2021/06/19 06:59:06;;;;;;;9.87;6.60;;;30.20;48.80;;;;;;5032471;28;20621;-51
2021/06/19 07:01:32;;;;;;;13.23;6.80;;;30.40;48.00;;;;;;5032298;28;20194;-51
2021/06/19 07:03:59;;;;;;;17.60;7.00;;;30.40;47.90;;;;;;5031839;28;20189;-53
2021/06/19 07:06:25;;;;;;;9.73;6.67;;;30.70;47.70;;;;;;5029713;28;20252;-52
2021/06/19 07:08:52;;;;;;;11.67;7.33;;;31.00;47.10;;;;;;5010530;28;20842;-52
2021/06/19 07:11:19;;;;;;;9.77;7.00;;;31.20;47.10;;;;;;5013450;28;20417;-48
2021/06/19 07:13:44;;;;;;;9.77;6.63;;;31.30;46.90;;;;;;5032151;28;20484;-51
2021/06/19 07:16:10;;;;;;;16.03;6.87;;;31.50;46.70;;;;;;5030876;28;20454;-53
2021/06/19 07:18:36;;;;;;;9.63;5.83;;;31.60;46.50;;;;;;5031968;28;20563;-51
2021/06/19 07:21:02;;;;;;;18.23;7.60;;;31.70;46.30;;;;;;5016825;28;20741;-49
2021/06/19 07:23:29;;;;;;;13.30;7.23;;;31.90;45.90;;;;;;5012490;28;20272;-53
2021/06/19 07:25:56;;;;;;;8.30;6.57;;;32.00;46.00;;;;;;5009956;28;20894;-53
2021/06/19 07:28:22;;;;;;;13.80;6.97;;;31.80;46.20;;;;;;5021971;28;20436;-51
2021/06/19 07:30:48;;;;;;;10.40;6.63;;;31.80;46.40;;;;;;5011649;28;20429;-52
2021/06/19 07:33:15;;;;;;;11.93;8.27;;;32.00;46.00;;;;;;5013920;28;21051;-51
2021/06/19 07:35:41;;;;;;;11.43;6.53;;;32.20;45.20;;;;;;5028221;28;20278;-52
2021/06/19 07:38:06;;;;;;;21.10;6.43;;;32.30;44.90;;;;;;5031575;28;20464;-52
2021/06/19 07:40:33;;;;;;;10.90;6.80;;;32.50;44.60;;;;;;5031200;28;20240;-52
2021/06/19 07:42:59;;;;;;;11.97;6.93;;;32.60;44.60;;;;;;5021871;28;20186;-52
2021/06/19 07:45:25;;;;;;;12.33;7.10;;;32.80;45.30;;;;;;5010713;28;20520;-51
2021/06/19 07:47:51;;;;;;;8.40;6.90;;;33.00;44.80;;;;;;5019064;28;20490;-48
2021/06/19 07:50:17;;;;;;;12.53;7.10;;;33.20;44.50;;;;;;5015524;28;20893;-53
2021/06/19 07:52:43;;;;;;;13.53;7.90;;;33.40;43.70;;;;;;5011803;28;20488;-52
2021/06/19 07:55:10;;;;;;;15.20;7.20;;;33.50;43.70;;;;;;5010905;28;20196;-52
2021/06/19 07:57:36;;;;;;;16.90;7.10;;;33.70;42.60;;;;;;5012737;28;20512;-53
2021/06/19 08:00:04;;;;;;;8.23;6.83;;;33.90;43.20;;;;;;5015685;28;20528;-51
2021/06/19 08:02:30;;;;;;;12.73;7.67;;;34.10;42.00;;;;;;5010048;28;20197;-52
2021/06/19 08:04:55;;;;;;;10.13;7.07;;;34.10;42.00;;;;;;5010860;28;20447;-50
2021/06/19 08:07:21;;;;;;;10.50;7.00;;;34.20;42.00;;;;;;5021499;28;20205;-49
2021/06/19 08:09:46;;;;;;;9.83;6.77;;;34.40;42.00;;;;;;5026345;28;20200;-51
2021/06/19 08:12:12;;;;;;;15.90;7.37;;;34.50;40.90;;;;;;5029888;28;20256;-53
2021/06/19 08:14:38;;;;;;;7.20;6.47;;;34.60;41.50;;;;;;5022334;28;20193;-53
2021/06/19 08:17:08;;;;;;;12.83;7.50;;;34.80;41.50;;;;;;5021095;28;20189;-50
2021/06/19 08:19:35;;;;;;;12.40;8.20;;;34.90;40.70;;;;;;5029033;28;20708;-50
2021/06/19 08:22:01;;;;;;;10.27;7.10;;;35.00;40.30;;;;;;5026670;28;20455;-49
2021/06/19 08:24:27;;;;;;;11.20;7.73;;;35.00;39.60;;;;;;5025123;28;20523;-49
2021/06/19 08:26:52;;;;;;;12.07;8.10;;;35.00;39.30;;;;;;5022130;28;20983;-48
2021/06/19 08:29:18;;;;;;;8.57;7.60;;;34.70;39.50;;;;;;5023628;28;20193;-50
2021/06/19 08:31:43;;;;;;;12.93;7.30;;;34.50;40.50;;;;;;5026867;28;20220;-50
2021/06/19 08:34:09;;;;;;;14.63;7.67;;;34.40;41.30;;;;;;5029495;28;20280;-51
2021/06/19 08:36:35;;;;;;;8.90;6.50;;;34.80;40.60;;;;;;5025142;28;20189;-49
2021/06/19 08:39:02;;;;;;;10.40;7.23;;;34.90;40.10;;;;;;5026847;28;20266;-48
2021/06/19 08:41:27;;;;;;;13.43;6.60;;;34.60;40.00;;;;;;5027581;28;20197;-48
2021/06/19 08:43:53;;;;;;;13.30;7.07;;;34.80;40.80;;;;;;5017692;28;20463;-52
2021/06/19 08:46:21;;;;;;;12.20;6.83;;;35.20;39.40;;;;;;5020373;28;20205;-52
2021/06/19 08:48:50;;;;;;;13.33;8.37;;;35.30;39.50;;;;;;5022989;28;20447;-52
2021/06/19 08:51:15;;;;;;;12.73;8.40;;;35.50;39.30;;;;;;5026972;28;20436;-51
2021/06/19 08:53:41;;;;;;;9.83;7.50;;;35.70;39.00;;;;;;5023787;28;20484;-49
2021/06/19 08:56:07;;;;;;;11.07;7.63;;;34.90;39.70;;;;;;5026241;28;20197;-50
2021/06/19 08:58:32;;;;;;;12.70;7.23;;;34.60;39.90;;;;;;5029694;28;20552;-51
2021/06/19 09:00:58;;;;;;;9.03;7.50;;;34.40;40.40;;;;;;5032083;28;20634;-49
2021/06/19 09:03:28;;;;;;;16.30;7.00;;;34.60;40.20;;;;;;5022745;28;20201;-52
2021/06/19 09:06:27;;;;;;;7.70;6.90;;;34.90;40.20;;;;;;5027145;28;20193;-49
2021/06/19 09:09:25;;;;;;;8.13;7.30;;;35.30;39.90;;;;;;5031051;28;20513;-49
2021/06/19 09:11:53;;;;;;;9.20;8.10;;;35.70;38.70;;;;;;5006292;28;20481;-53
2021/06/19 09:14:25;;;;;;;11.70;7.47;;;36.10;38.40;;;;;;5031600;28;20440;-52
2021/06/19 09:17:00;;;;;;;10.90;7.90;;;36.30;37.70;;;;;;5032402;28;20529;-49
2021/06/19 09:19:29;;;;;;;8.47;7.77;;;36.60;37.10;;;;;;5028591;28;20510;-48
2021/06/19 09:22:20;;;;;;;11.00;7.77;;;36.80;36.70;;;;;;5032692;28;20849;-51
2021/06/19 09:24:50;;;;;;;10.77;8.43;;;37.00;36.60;;;;;;5016552;28;20468;-48
2021/06/19 09:27:44;;;;;;;12.40;7.43;;;36.90;36.60;;;;;;5029985;28;20454;-52
2021/06/19 09:30:12;;;;;;;12.43;7.43;;;36.70;37.10;;;;;;5020663;28;20443;-53
2021/06/19 09:32:44;;;;;;;10.73;7.90;;;36.80;36.70;;;;;;5032957;28;20648;-52
2021/06/19 09:35:17;;;;;;;13.77;8.37;;;36.90;36.00;;;;;;5020378;28;20511;-53
2021/06/19 09:37:48;;;;;;;12.93;7.90;;;36.90;37.10;;;;;;5028826;28;20578;-53
2021/06/19 09:40:28;;;;;;;10.23;7.27;;;36.60;36.90;;;;;;5023587;28;20448;-51
2021/06/19 09:43:12;;;;;;;7.73;6.87;;;36.90;37.30;;;;;;5024023;28;20488;-51
2021/06/19 09:45:43;;;;;;;11.73;7.20;;;36.90;37.80;;;;;;5025676;28;20831;-51
2021/06/19 09:48:26;;;;;;;11.80;7.97;;;37.30;36.70;;;;;;5032603;28;20439;-51
2021/06/19 09:51:10;;;;;;;9.60;6.47;;;37.70;35.00;;;;;;5029889;28;21107;-53
2021/06/19 09:53:37;;;;;;;8.47;7.27;;;38.00;34.90;;;;;;5023372;28;21006;-50
2021/06/19 09:56:08;;;;;;;12.70;7.77;;;38.10;34.10;;;;;;5031130;28;20439;-53
2021/06/19 09:58:41;;;;;;;12.17;7.53;;;38.30;34.00;;;;;;5032441;28;20467;-52
2021/06/19 10:01:07;;;;;;;8.93;7.77;;;38.30;33.90;;;;;;5030101;28;20831;-53
2021/06/19 10:03:56;;;;;;;11.30;8.27;;;38.30;33.80;;;;;;5023161;28;20444;-51
2021/06/19 10:06:24;;;;;;;9.93;7.53;;;38.50;33.70;;;;;;5018766;28;20518;-54
2021/06/19 10:08:52;;;;;;;10.67;7.83;;;38.40;33.20;;;;;;5035232;28;20435;-52
2021/06/19 10:11:19;;;;;;;10.63;7.43;;;37.70;33.10;;;;;;5028442;28;20428;-50
2021/06/19 10:13:45;;;;;;;10.97;7.13;;;37.30;35.00;;;;;;5032716;28;20525;-53
2021/06/19 10:16:13;;;;;;;8.20;7.23;;;37.50;35.40;;;;;;5028216;28;20525;-50
2021/06/19 10:18:43;;;;;;;13.50;7.03;;;37.90;35.60;;;;;;5029802;28;20526;-53
2021/06/19 10:21:10;;;;;;;10.93;6.50;;;38.30;34.50;;;;;;5023393;28;20451;-48
2021/06/19 10:23:36;;;;;;;11.33;6.90;;;38.00;32.70;;;;;;5031108;28;20522;-52
2021/06/19 10:26:03;;;;;;;13.83;7.43;;;38.30;33.50;;;;;;5031592;28;20427;-52
2021/06/19 10:28:31;;;;;;;8.23;7.43;;;38.50;32.40;;;;;;5031838;28;20507;-49
2021/06/19 10:30:58;;;;;;;7.60;6.80;;;38.80;32.50;;;;;;5029473;28;20550;-49
2021/06/19 10:33:29;;;;;;;14.23;7.10;;;38.90;32.10;;;;;;5031089;28;21052;-50
2021/06/19 10:36:01;;;;;;;14.73;7.10;;;39.00;32.00;;;;;;5025323;28;20460;-51
2021/06/19 10:38:27;;;;;;;8.27;7.30;;;38.50;32.60;;;;;;5018715;28;20536;-53
2021/06/19 10:41:03;;;;;;;12.63;7.37;;;37.80;33.60;;;;;;5029906;28;20435;-50
2021/06/19 10:43:29;;;;;;;17.70;7.67;;;37.80;33.00;;;;;;5022314;28;20431;-51
2021/06/19 10:46:18;;;;;;;11.10;6.60;;;38.20;32.20;;;;;;5023212;28;20458;-52
2021/06/19 10:48:44;;;;;;;12.10;7.73;;;38.40;31.90;;;;;;5016865;28;20208;-53
2021/06/19 10:51:20;;;;;;;8.90;5.93;;;38.50;31.50;;;;;;5031939;28;20407;-49
2021/06/19 10:54:07;;;;;;;9.77;6.50;;;38.60;31.00;;;;;;5031710;28;20243;-49
2021/06/19 10:56:58;;;;;;;9.43;7.10;;;39.00;30.80;;;;;;5029970;28;20447;-49
2021/06/19 10:59:33;;;;;;;10.07;5.93;;;39.20;30.30;;;;;;5028180;28;20444;-49
2021/06/19 11:02:01;;;;;;;11.63;6.70;;;39.30;30.80;;;;;;5031849;28;20443;-48
2021/06/19 11:04:39;;;;;;;7.17;6.43;;;39.40;30.50;;;;;;5019532;28;20437;-49
2021/06/19 11:07:18;;;;;;;9.73;6.30;;;39.20;30.60;;;;;;5031778;28;20443;-50
2021/06/19 11:09:48;;;;;;;8.50;6.63;;;39.40;31.70;;;;;;5031169;28;20436;-50
2021/06/19 11:12:23;;;;;;;8.30;6.43;;;39.60;30.00;;;;;;5030432;28;20533;-50
2021/06/19 11:14:50;;;;;;;13.10;6.70;;;39.50;29.90;;;;;;5022687;28;20951;-49
2021/06/19 11:17:22;;;;;;;11.47;6.40;;;39.40;29.30;;;;;;5021902;28;20462;-49
2021/06/19 11:20:20;;;;;;;9.83;6.33;;;38.80;29.70;;;;;;5029656;28;20447;-48
2021/06/19 11:22:56;;;;;;;7.90;5.33;;;38.80;30.20;;;;;;5010576;28;21092;-50
2021/06/19 11:25:42;;;;;;;11.20;5.67;;;38.60;29.90;;;;;;5030037;28;20538;-49
2021/06/19 11:28:17;;;;;;;12.10;6.00;;;38.70;30.30;;;;;;5031145;28;20438;-50
2021/06/19 11:30:45;;;;;;;7.67;5.93;;;39.00;29.40;;;;;;5025786;28;20946;-49
2021/06/19 11:33:20;;;;;;;8.50;5.87;;;39.30;28.70;;;;;;5030739;28;20478;-49
2021/06/19 11:35:53;;;;;;;6.43;4.70;;;39.30;28.60;;;;;;5018885;28;20474;-52
2021/06/19 11:38:20;;;;;;;10.07;5.73;;;39.10;27.50;;;;;;5029770;28;20788;-49
2021/06/19 11:40:47;;;;;;;10.43;5.67;;;38.40;28.20;;;;;;5028611;28;20916;-50
2021/06/19 11:43:14;;;;;;;9.13;5.43;;;38.50;28.00;;;;;;5029811;28;20447;-50
2021/06/19 11:45:41;;;;;;;7.80;6.00;;;38.50;28.30;;;;;;5022843;28;20481;-50
2021/06/19 11:48:18;;;;;;;7.27;5.60;;;38.90;28.20;;;;;;5020855;28;20442;-49
2021/06/19 11:50:45;;;;;;;8.13;5.30;;;39.40;28.20;;;;;;5022141;28;20447;-49
2021/06/19 11:53:27;;;;;;;10.07;5.57;;;39.50;27.60;;;;;;5030516;28;20517;-49
2021/06/19 11:56:11;;;;;;;9.47;4.97;;;39.60;28.10;;;;;;5028952;28;20493;-49
2021/06/19 11:58:48;;;;;;;7.20;5.10;;;39.60;27.30;;;;;;5029407;28;20518;-49
2021/06/19 12:01:38;;;;;;;13.90;6.33;;;39.50;27.40;;;;;;5025593;28;20443;-49
2021/06/19 12:04:06;;;;;;;11.43;6.33;;;39.50;28.50;;;;;;5019888;28;20443;-53
2021/06/19 12:06:56;;;;;;;8.60;5.40;;;39.00;28.50;;;;;;5030188;28;20435;-52
2021/06/19 12:09:25;;;;;;;10.13;6.23;;;39.00;28.90;;;;;;5016213;28;20487;-53
2021/06/19 12:11:54;;;;;;;10.47;5.57;;;39.30;28.60;;;;;;5023750;28;20483;-54
2021/06/19 12:14:28;;;;;;;6.80;5.00;;;39.60;27.80;;;;;;5018132;28;20489;-53
2021/06/19 12:16:59;;;;;;;8.50;5.40;;;39.90;27.30;;;;;;5021576;28;20540;-53
2021/06/19 12:19:28;;;;;;;11.70;5.67;;;40.50;26.60;;;;;;5018671;28;20445;-52
2021/06/19 12:21:59;;;;;;;10.73;4.80;;;40.90;27.20;;;;;;5023531;28;20806;-53
2021/06/19 12:24:26;;;;;;;12.10;5.70;;;41.10;27.00;;;;;;5023733;28;20843;-53
2021/06/19 12:27:16;;;;;;;10.13;5.10;;;41.20;26.00;;;;;;5021996;28;20444;-53
2021/06/19 12:29:56;;;;;;;11.03;5.57;;;41.00;26.00;;;;;;5026994;28;20439;-51
2021/06/19 12:32:23;;;;;;;8.47;5.00;;;41.10;24.30;;;;;;5027379;28;20479;-53
2021/06/19 12:34:50;;;;;;;8.33;5.10;;;41.00;24.70;;;;;;5032693;28;20497;-52
2021/06/19 12:37:20;;;;;;;11.87;5.90;;;41.00;24.90;;;;;;5032882;28;20442;-54
2021/06/19 12:39:46;;;;;;;13.77;5.60;;;40.80;24.50;;;;;;5025261;28;20459;-54
2021/06/19 12:42:27;;;;;;;14.53;5.93;;;40.70;24.80;;;;;;5022460;28;20965;-53
2021/06/19 12:45:23;;;;;;;8.47;5.20;;;40.80;25.50;;;;;;5027658;28;20444;-53
2021/06/19 12:47:50;;;;;;;6.20;5.20;;;41.10;25.00;;;;;;5022381;28;20974;-53
2021/06/19 12:50:39;;;;;;;8.67;5.77;;;41.20;24.50;;;;;;5029105;28;20439;-54